Time;durP1;ratioP1;P1;durP2;ratioP2;P2;SDS_P1;SDS_P2;PMS_P1;PMS_P2;Temp;Humidity;BMP_temperature;BMP_pressure;BME280_temperature;BME280_humidity;BME280_pressure;Samples;Min_cycle;Max_cycle;Signal;HPM_P1;HPM_P2
2022/01/29 00:01:57;;;;;;;;;42.75;36.50;;;;;7.10;84.05;103071.91;5001563;28;45310;-76
2022/01/29 00:04:23;;;;;;;;;44.00;37.75;;;;;7.06;84.19;103063.28;5001344;28;45301;-77
2022/01/29 00:06:48;;;;;;;;;32.75;32.25;;;;;7.05;84.62;103049.25;5001517;28;45317;-77
2022/01/29 00:09:15;;;;;;;;;36.00;33.75;;;;;7.04;84.29;103044.03;5001251;28;45454;-77
2022/01/29 00:11:44;;;;;;;;;43.50;36.00;;;;;7.10;84.15;103056.03;5032912;28;47185;-77
2022/01/29 00:14:10;;;;;;;;;40.75;35.00;;;;;7.11;84.55;103063.88;5016127;28;47339;-77
2022/01/29 00:16:36;;;;;;;;;44.50;37.50;;;;;7.12;84.43;103057.63;5001291;28;45439;-77
2022/01/29 00:19:02;;;;;;;;;37.00;33.00;;;;;7.06;84.16;103043.00;5016665;28;45325;-77
2022/01/29 00:21:27;;;;;;;;;45.75;35.00;;;;;6.94;84.40;103019.94;5021056;28;45311;-76
2022/01/29 00:23:53;;;;;;;;;37.00;34.75;;;;;7.06;84.01;103034.22;5021189;28;45371;-77
2022/01/29 00:26:21;;;;;;;;;32.50;30.75;;;;;7.09;84.32;103039.31;5020745;28;45358;-77
2022/01/29 00:28:47;;;;;;;;;38.75;34.00;;;;;7.04;84.25;103028.19;5019692;28;45368;-76
2022/01/29 00:31:12;;;;;;;;;37.75;31.25;;;;;7.05;84.72;103027.22;5020350;28;45242;-76
2022/01/29 00:33:38;;;;;;;;;26.00;23.50;;;;;7.02;84.57;103016.84;5036020;28;47645;-76
2022/01/29 00:36:04;;;;;;;;;32.75;31.00;;;;;7.15;84.77;103028.34;5019634;28;45182;-77
2022/01/29 00:38:30;;;;;;;;;36.75;32.50;;;;;7.05;84.17;103012.22;5020918;28;45272;-76
2022/01/29 00:40:55;;;;;;;;;32.75;32.25;;;;;7.04;83.97;103001.75;5020353;28;45505;-76
2022/01/29 00:43:20;;;;;;;;;40.00;34.00;;;;;7.05;84.58;103004.28;5020672;28;46309;-77
2022/01/29 00:45:46;;;;;;;;;38.50;33.50;;;;;7.14;84.17;103009.94;5020737;28;45147;-77
2022/01/29 00:48:11;;;;;;;;;35.25;33.25;;;;;7.05;83.87;102988.44;5020881;28;45355;-77
2022/01/29 00:50:36;;;;;;;;;31.25;29.00;;;;;7.16;84.57;102997.47;5020533;28;45343;-77
2022/01/29 00:53:02;;;;;;;;;34.25;30.75;;;;;7.19;84.48;103000.75;5020537;28;45324;-77
2022/01/29 00:55:27;;;;;;;;;33.75;32.75;;;;;7.13;84.40;102984.44;5018885;28;45809;-77
2022/01/29 00:57:53;;;;;;;;;25.67;24.67;;;;;7.13;84.37;102980.03;5020753;28;45282;-77
2022/01/29 01:00:18;;;;;;;;;37.50;33.00;;;;;7.16;83.99;102978.97;5020410;28;45348;-76
2022/01/29 01:02:44;;;;;;;;;33.25;29.25;;;;;7.15;84.42;102972.00;5018571;28;47467;-77
2022/01/29 01:05:10;;;;;;;;;31.50;27.00;;;;;7.14;84.50;102967.63;5020317;28;45313;-76
2022/01/29 01:07:36;;;;;;;;;32.50;28.00;;;;;7.10;84.17;102969.63;5020573;28;45241;-77
2022/01/29 01:10:02;;;;;;;;;26.67;24.33;;;;;6.97;84.13;102944.91;5019839;28;45221;-77
2022/01/29 01:12:27;;;;;;;;;27.67;24.67;;;;;7.03;84.62;102953.28;5019993;28;47706;-77
2022/01/29 01:14:53;;;;;;;;;28.00;21.33;;;;;7.00;84.60;102957.94;5020282;28;45227;-76
2022/01/29 01:17:18;;;;;;;;;33.00;29.33;;;;;7.09;84.12;102970.56;5018871;28;45899;-76
2022/01/29 01:19:45;;;;;;;;;27.33;22.67;;;;;7.10;84.43;102974.06;5000400;28;45446;-77
2022/01/29 01:22:11;;;;;;;;;27.00;22.67;;;;;7.10;84.47;102974.91;5000260;28;45237;-77
2022/01/29 01:24:36;;;;;;;;;28.67;27.33;;;;;7.12;84.25;102973.00;5000071;28;45322;-77
2022/01/29 01:27:02;;;;;;;;;26.00;22.33;;;;;7.14;83.88;102978.19;5032132;28;45378;-76
2022/01/29 01:29:27;;;;;;;;;29.00;27.33;;;;;7.11;84.11;102966.03;4999873;28;45325;-77
2022/01/29 01:31:53;;;;;;;;;29.67;26.33;;;;;7.09;83.79;102969.72;4998802;28;47596;-77
2022/01/29 01:34:21;;;;;;;;;25.33;23.33;;;;;7.05;84.10;102969.91;5000020;28;45359;-77
2022/01/29 01:36:52;;;;;;;;;25.67;25.00;;;;;7.08;84.49;102979.44;5000178;28;45313;-77
2022/01/29 01:39:21;;;;;;;;;24.33;23.33;;;;;7.05;84.28;102977.84;4999852;28;45393;-76
2022/01/29 01:41:58;;;;;;;;;28.33;24.67;;;;;7.07;84.43;102983.88;4999609;28;45297;-76
2022/01/29 01:44:23;;;;;;;;;21.33;20.67;;;;;7.06;84.44;102970.75;5031804;28;45899;-77
2022/01/29 01:46:49;;;;;;;;;24.00;24.00;;;;;7.07;84.25;102968.00;5000121;28;45299;-77
2022/01/29 01:49:16;;;;;;;;;27.67;25.00;;;;;7.04;84.22;102954.97;4999922;28;45238;-77
2022/01/29 01:51:42;;;;;;;;;21.67;21.67;;;;;7.01;84.77;102957.84;5031680;28;47362;-76
2022/01/29 01:54:07;;;;;;;;;30.00;24.00;;;;;7.00;84.53;102953.47;4999715;28;45504;-77
2022/01/29 01:56:33;;;;;;;;;20.33;18.67;;;;;7.00;84.89;102960.56;5031549;28;45391;-77
2022/01/29 01:58:58;;;;;;;;;28.67;24.00;;;;;6.92;85.05;102943.38;5031597;28;45855;-77
2022/01/29 02:01:24;;;;;;;;;20.00;17.33;;;;;6.87;84.95;102947.25;4999706;28;45316;-77
2022/01/29 02:03:49;;;;;;;;;21.67;19.00;;;;;6.89;85.08;102951.50;4999755;28;45317;-76
2022/01/29 02:06:15;;;;;;;;;21.67;20.67;;;;;6.93;85.33;102965.38;4999933;28;45246;-76
2022/01/29 02:08:40;;;;;;;;;23.67;23.33;;;;;6.86;85.34;102942.91;4999649;28;45298;-77
2022/01/29 02:11:06;;;;;;;;;21.33;20.33;;;;;6.80;85.96;102933.56;4998978;28;46276;-76
2022/01/29 02:13:32;;;;;;;;;24.67;20.67;;;;;6.82;85.49;102937.81;4999756;28;45250;-76
2022/01/29 02:15:58;;;;;;;;;21.00;20.00;;;;;6.92;86.21;102948.66;5003205;28;45499;-77
2022/01/29 02:18:23;;;;;;;;;24.33;20.67;;;;;6.88;86.02;102943.69;5045203;28;45307;-77
2022/01/29 02:20:49;;;;;;;;;26.00;22.67;;;;;6.88;85.96;102941.88;5022857;28;45316;-76
2022/01/29 02:23:17;;;;;;;;;26.33;24.33;;;;;6.79;85.96;102918.63;5023055;28;45262;-76
2022/01/29 02:25:47;;;;;;;;;24.67;21.67;;;;;6.77;85.99;102920.56;5022727;28;45271;-76
2022/01/29 02:28:18;;;;;;;;;20.00;19.00;;;;;6.88;86.74;102926.00;5022664;28;45423;-77
2022/01/29 02:30:49;;;;;;;;;23.33;21.33;;;;;6.76;86.56;102901.19;5022388;28;45438;-76
2022/01/29 02:33:16;;;;;;;;;29.67;25.67;;;;;6.88;86.19;102918.06;5021402;28;45320;-77
2022/01/29 02:35:43;;;;;;;;;22.00;22.00;;;;;6.87;86.60;102924.31;5022913;28;45391;-77
2022/01/29 02:38:09;;;;;;;;;27.00;24.67;;;;;6.85;86.51;102906.84;5022595;28;45458;-77
2022/01/29 02:40:43;;;;;;;;;14.00;8.25;;;;;6.78;86.70;102895.81;5022322;28;45472;-77
2022/01/29 02:43:18;;;;;;;;;25.00;21.00;;;;;6.85;86.81;102905.03;5021030;28;45370;-76
2022/01/29 02:45:44;;;;;;;;;21.33;21.33;;;;;6.83;87.02;102896.38;5021338;28;45351;-76
2022/01/29 02:48:10;;;;;;;;;26.00;22.33;;;;;6.83;86.58;102893.75;5022331;28;45481;-77
2022/01/29 02:50:36;;;;;;;;;23.67;21.67;;;;;6.79;86.65;102886.91;5022351;28;46649;-77
2022/01/29 02:53:01;;;;;;;;;24.00;21.67;;;;;6.82;87.21;102894.66;5022272;28;45656;-76
2022/01/29 02:55:29;;;;;;;;;16.33;13.67;;;;;6.85;86.97;102902.41;5022412;28;45199;-76
2022/01/29 02:57:55;;;;;;;;;24.00;20.33;;;;;6.75;87.30;102880.13;5022499;28;45501;-76
2022/01/29 03:00:20;;;;;;;;;27.33;26.00;;;;;6.85;87.17;102891.81;5020753;28;47203;-77
2022/01/29 03:02:45;;;;;;;;;22.67;20.67;;;;;6.86;87.34;102885.63;5022262;28;45154;-77
2022/01/29 03:05:11;;;;;;;;;23.00;21.33;;;;;6.84;87.26;102887.50;5022491;28;45235;-76
2022/01/29 03:07:38;;;;;;;;;24.00;23.33;;;;;6.81;87.42;102869.19;5037426;28;47177;-77
2022/01/29 03:10:04;;;;;;;;;26.00;23.33;;;;;6.85;87.34;102870.69;5021610;28;46300;-77
2022/01/29 03:12:30;;;;;;;;;24.00;21.00;;;;;6.77;87.71;102860.59;5022014;28;45363;-77
2022/01/29 03:14:55;;;;;;;;;24.00;23.00;;;;;6.85;87.68;102881.25;5022320;28;45289;-77
2022/01/29 03:17:21;;;;;;;;;24.33;24.33;;;;;6.83;87.95;102875.25;5020253;28;45307;-77
2022/01/29 03:19:46;;;;;;;;;23.33;21.00;;;;;6.79;87.72;102861.34;5033925;28;47955;-76
2022/01/29 03:22:12;;;;;;;;;26.33;24.00;;;;;6.81;88.20;102863.91;5002296;28;45211;-77
2022/01/29 03:24:37;;;;;;;;;25.00;23.00;;;;;6.85;87.50;102868.03;5033685;28;45320;-77
2022/01/29 03:27:03;;;;;;;;;28.00;23.33;;;;;6.79;87.64;102852.56;5033782;28;46161;-77
2022/01/29 03:29:28;;;;;;;;;26.00;23.00;;;;;6.85;87.79;102867.22;5001784;28;45910;-76
2022/01/29 03:31:54;;;;;;;;;26.33;23.00;;;;;6.81;87.62;102864.75;5002077;28;45167;-77
2022/01/29 03:34:19;;;;;;;;;23.67;22.67;;;;;6.90;87.42;102881.81;5033902;28;45258;-77
2022/01/29 03:36:44;;;;;;;;;25.33;25.00;;;;;6.83;87.90;102864.66;5001864;28;45479;-77
2022/01/29 03:39:10;;;;;;;;;22.00;19.67;;;;;6.81;88.16;102856.81;5033489;28;48691;-76
2022/01/29 03:41:36;;;;;;;;;21.00;20.33;;;;;6.82;87.88;102868.22;5001651;28;45209;-77
2022/01/29 03:44:05;;;;;;;;;24.00;22.33;;;;;6.90;88.22;102875.69;5001989;28;45308;-77
2022/01/29 03:46:32;;;;;;;;;21.00;19.67;;;;;6.82;87.81;102860.31;5001749;28;45318;-76
2022/01/29 03:48:57;;;;;;;;;22.67;20.00;;;;;6.82;88.19;102866.44;5001516;28;45227;-77
2022/01/29 03:51:22;;;;;;;;;22.33;21.33;;;;;6.85;88.43;102873.31;5001590;28;45291;-77
2022/01/29 03:53:48;;;;;;;;;20.67;18.67;;;;;6.89;88.09;102880.09;5033654;28;45308;-77
2022/01/29 03:56:13;;;;;;;;;24.33;23.67;;;;;6.89;88.79;102874.81;5000020;28;45915;-76
2022/01/29 03:58:39;;;;;;;;;25.00;22.00;;;;;6.87;88.91;102863.50;5001547;28;45555;-77
2022/01/29 04:01:04;;;;;;;;;24.75;22.25;;;;;6.87;88.17;102857.38;5001573;28;45207;-77
2022/01/29 04:03:29;;;;;;;;;25.33;25.33;;;;;6.93;88.58;102865.78;5001718;28;45223;-76
2022/01/29 04:05:55;;;;;;;;;28.00;23.67;;;;;6.88;88.26;102853.81;5000203;28;47330;-77
2022/01/29 04:08:20;;;;;;;;;21.67;19.00;;;;;6.89;88.61;102852.84;5033125;28;48227;-77
2022/01/29 04:10:47;;;;;;;;;24.33;22.67;;;;;6.86;88.45;102853.03;5032722;28;45307;-76
2022/01/29 04:13:14;;;;;;;;;26.67;25.67;;;;;6.93;89.21;102864.91;5001630;28;45332;-77
2022/01/29 04:15:40;;;;;;;;;26.67;25.67;;;;;6.90;88.76;102852.75;5001229;28;45432;-76
2022/01/29 04:18:05;;;;;;;;;21.67;21.00;;;;;6.96;88.46;102859.44;5008885;28;46149;-77
2022/01/29 04:20:30;;;;;;;;;25.33;21.00;;;;;7.01;88.56;102861.78;5019725;28;45361;-76
2022/01/29 04:22:56;;;;;;;;;26.67;24.67;;;;;6.95;88.74;102837.41;5021279;28;45333;-78
2022/01/29 04:25:23;;;;;;;;;27.67;23.67;;;;;7.01;88.99;102848.56;5020755;28;45453;-77
2022/01/29 04:27:48;;;;;;;;;21.00;18.67;;;;;7.03;88.48;102851.94;5020987;28;46084;-76
2022/01/29 04:30:29;;;;;;;;;32.00;25.00;;;;;7.08;88.76;102855.16;5020615;28;45274;-77
2022/01/29 04:33:45;;;;;;;;;25.00;23.00;;;;;7.01;88.53;102840.63;5021255;28;45378;-77
2022/01/29 04:35:45;;;;;;;;;25.00;22.00;;;;;7.10;89.09;102852.41;5016687;28;45584;-76
2022/01/29 04:38:11;;;;;;;;;21.33;21.00;;;;;7.06;88.69;102852.59;5020107;28;45195;-77
2022/01/29 04:40:36;;;;;;;;;30.67;27.00;;;;;7.04;88.54;102851.00;5020597;28;45255;-77
2022/01/29 04:43:05;;;;;;;;;30.00;23.00;;;;;6.94;88.33;102843.66;5020934;28;45255;-76
2022/01/29 04:45:31;;;;;;;;;31.67;26.67;;;;;7.11;88.66;102867.31;5020689;28;45327;-77
2022/01/29 04:47:57;;;;;;;;;25.67;25.33;;;;;7.06;88.73;102852.59;5020615;28;46598;-77
2022/01/29 04:50:22;;;;;;;;;26.67;22.00;;;;;7.10;89.00;102845.34;5020557;28;45326;-76
2022/01/29 04:52:48;;;;;;;;;26.67;25.00;;;;;6.99;88.36;102822.22;5019492;28;45426;-76
2022/01/29 04:55:13;;;;;;;;;28.33;22.67;;;;;7.03;89.29;102823.72;5020312;28;45310;-76
2022/01/29 04:57:39;;;;;;;;;25.00;23.33;;;;;7.09;88.41;102840.97;5020528;28;46006;-77
2022/01/29 05:00:11;;;;;;;;;24.33;21.00;;;;;7.11;88.63;102852.31;5020552;28;45216;-77
2022/01/29 05:02:37;;;;;;;;;28.33;23.67;;;;;7.10;89.14;102844.47;5020543;28;45219;-77
2022/01/29 05:05:04;;;;;;;;;22.00;19.33;;;;;7.04;89.18;102835.97;5020355;28;45278;-77
2022/01/29 05:07:29;;;;;;;;;21.00;19.33;;;;;7.11;89.05;102843.53;5020330;28;48067;-76
2022/01/29 05:09:55;;;;;;;;;23.33;20.33;;;;;7.07;88.86;102837.59;5019838;28;45272;-77
2022/01/29 05:12:26;;;;;;;;;22.33;20.00;;;;;7.10;89.15;102836.53;5020494;28;45277;-76
2022/01/29 05:27:59;;;;;;;;;25.67;22.67;;;;;7.05;89.23;102850.06;4999986;28;45276;-77
2022/01/29 05:30:24;;;;;;;;;24.00;23.00;;;;;7.07;89.15;102841.06;4998556;28;45848;-77
2022/01/29 05:32:50;;;;;;;;;25.67;23.33;;;;;7.13;89.39;102861.00;5000430;28;46004;-77
2022/01/29 05:35:15;;;;;;;;;32.75;25.75;;;;;7.13;90.03;102849.56;5031836;28;46213;-77
2022/01/29 05:37:40;;;;;;;;;26.33;24.67;;;;;7.11;90.02;102841.75;5031909;28;47188;-76
2022/01/29 05:40:07;;;;;;;;;26.33;20.00;;;;;7.18;89.52;102858.91;4999863;28;45202;-77
2022/01/29 05:42:32;;;;;;;;;26.33;23.00;;;;;7.09;89.81;102834.84;5031987;28;45304;-76
2022/01/29 05:44:57;;;;;;;;;27.00;25.00;;;;;7.09;89.21;102827.75;5000002;28;45383;-77
2022/01/29 05:47:22;;;;;;;;;28.67;24.67;;;;;7.10;89.77;102821.53;4999961;28;46096;-77
2022/01/29 05:49:48;;;;;;;;;28.00;24.33;;;;;7.20;89.89;102846.44;5030503;28;45303;-77
2022/01/29 05:52:13;;;;;;;;;19.33;16.33;;;;;7.16;89.59;102839.63;5029561;28;45409;-77
2022/01/29 05:54:38;;;;;;;;;28.67;27.00;;;;;7.15;89.36;102830.00;4999819;28;45285;-76
2022/01/29 05:57:04;;;;;;;;;25.00;23.00;;;;;7.13;89.58;102831.91;4999590;28;45353;-77
2022/01/29 05:59:32;;;;;;;;;27.00;26.00;;;;;7.17;89.58;102830.75;5014936;28;45459;-77
2022/01/29 06:01:57;;;;;;;;;26.67;24.00;;;;;7.16;89.65;102822.94;4999986;28;45289;-77
2022/01/29 06:04:23;;;;;;;;;27.67;25.00;;;;;7.18;89.47;102823.66;4999616;28;45416;-77
2022/01/29 06:06:48;;;;;;;;;24.67;23.67;;;;;7.22;89.73;102824.31;4996605;28;45383;-77
2022/01/29 06:09:13;;;;;;;;;27.00;25.33;;;;;7.29;90.29;102836.19;5030884;28;45650;-77
2022/01/29 06:11:39;;;;;;;;;26.67;24.00;;;;;7.22;89.77;102817.25;4998323;28;45485;-77
2022/01/29 06:14:04;;;;;;;;;32.67;26.67;;;;;7.26;90.12;102824.03;4999710;28;45445;-76
2022/01/29 06:16:30;;;;;;;;;27.33;26.00;;;;;7.24;90.54;102831.19;4999435;28;47014;-77
2022/01/29 06:18:55;;;;;;;;;31.33;27.67;;;;;7.24;90.68;102822.44;5031315;28;45306;-79
2022/01/29 06:21:21;;;;;;;;;28.00;25.25;;;;;7.25;89.95;102826.75;4999779;28;45219;-78
2022/01/29 06:23:46;;;;;;;;;28.00;25.67;;;;;7.23;89.97;102824.22;4999498;28;45471;-78
2022/01/29 06:26:13;;;;;;;;;32.33;26.67;;;;;7.33;89.71;102830.59;4999162;28;46048;-79
2022/01/29 06:28:39;;;;;;;;;24.33;24.33;;;;;7.31;90.20;102824.53;4999551;28;45379;-78
2022/01/29 06:31:06;;;;;;;;;28.00;23.33;;;;;7.38;89.77;102834.72;4999178;28;45491;-78
2022/01/29 06:33:32;;;;;;;;;30.00;27.33;;;;;7.38;90.15;102842.66;5014530;28;46214;-79
2022/01/29 06:35:57;;;;;;;;;29.00;27.33;;;;;7.40;90.25;102848.72;5014403;28;48484;-79
2022/01/29 06:38:24;;;;;;;;;27.67;26.67;;;;;7.37;90.49;102848.91;4999349;28;45231;-78
2022/01/29 06:40:49;;;;;;;;;34.00;31.00;;;;;7.38;90.21;102843.53;4999208;28;45222;-77
2022/01/29 06:43:15;;;;;;;;;27.67;23.67;;;;;7.30;89.89;102827.28;4997926;28;46906;-77
2022/01/29 06:45:42;;;;;;;;;30.33;28.00;;;;;7.42;89.92;102842.38;5014702;28;47182;-77
2022/01/29 06:48:08;;;;;;;;;35.00;29.00;;;;;7.36;90.40;102828.72;5019198;28;45579;-78
2022/01/29 06:50:35;;;;;;;;;32.00;29.00;;;;;7.42;89.91;102830.94;5019056;28;45309;-77
2022/01/29 06:53:00;;;;;;;;;37.00;32.67;;;;;7.37;90.30;102825.09;5018839;28;45339;-78
2022/01/29 06:55:26;;;;;;;;;26.00;24.67;;;;;7.44;90.14;102829.91;5018493;28;46060;-78
2022/01/29 06:57:51;;;;;;;;;32.33;27.67;;;;;7.40;90.54;102815.19;5017758;28;45218;-77
2022/01/29 07:00:17;;;;;;;;;29.67;26.00;;;;;7.52;89.89;102828.53;5020222;28;45158;-78
2022/01/29 07:02:43;;;;;;;;;32.50;29.75;;;;;7.49;90.36;102816.38;5022336;28;45496;-77
2022/01/29 07:05:11;;;;;;;;;31.67;31.33;;;;;7.50;90.24;102825.13;5016527;28;47510;-77
2022/01/29 07:07:36;;;;;;;;;34.33;29.00;;;;;7.57;89.89;102831.69;5002530;28;45210;-77
2022/01/29 07:10:03;;;;;;;;;32.00;31.00;;;;;7.51;90.04;102817.09;5002095;28;45388;-77
2022/01/29 07:12:29;;;;;;;;;28.33;24.67;;;;;7.60;89.89;102817.44;5017541;28;46178;-78
2022/01/29 07:14:54;;;;;;;;;26.00;25.67;;;;;7.54;90.19;102819.53;5002109;28;46042;-77
2022/01/29 07:17:22;;;;;;;;;32.67;30.00;;;;;7.58;90.17;102818.38;5018918;28;45316;-77
2022/01/29 07:19:50;;;;;;;;;33.00;29.33;;;;;7.64;90.45;102816.28;5022216;28;45321;-78
2022/01/29 07:22:15;;;;;;;;;29.67;28.33;;;;;7.61;90.34;102814.69;5022146;28;45261;-77
2022/01/29 07:24:41;;;;;;;;;28.67;27.00;;;;;7.52;90.09;102794.13;5001906;28;45814;-78
2022/01/29 07:27:06;;;;;;;;;30.33;28.00;;;;;7.66;90.40;102817.84;4995342;28;45288;-78
2022/01/29 07:29:33;;;;;;;;;28.67;26.33;;;;;7.56;90.35;102792.97;5001306;28;45301;-80
2022/01/29 07:31:59;;;;;;;;;33.33;30.67;;;;;7.60;89.90;102799.75;4994121;28;45533;-78
2022/01/29 07:34:25;;;;;;;;;32.00;29.00;;;;;7.68;90.30;102812.47;5010991;28;47471;-77
2022/01/29 07:36:52;;;;;;;;;26.00;25.00;;;;;7.70;90.00;102807.94;5017098;28;46356;-76
2022/01/29 07:39:18;;;;;;;;;27.33;24.67;;;;;7.71;89.76;102812.25;5002063;28;45301;-79
2022/01/29 07:41:44;;;;;;;;;34.25;30.75;;;;;7.74;90.38;102817.34;5001570;28;45265;-78
2022/01/29 07:44:09;;;;;;;;;28.67;26.00;;;;;7.75;90.38;102818.19;4999746;28;46164;-77
2022/01/29 07:46:34;;;;;;;;;30.33;28.00;;;;;7.72;90.42;102810.47;5000731;28;45353;-78
2022/01/29 07:49:00;;;;;;;;;28.00;27.00;;;;;7.72;90.26;102806.00;5001933;28;45308;-77
2022/01/29 07:51:25;;;;;;;;;29.33;29.33;;;;;7.82;90.26;102830.88;4999464;28;45554;-78
2022/01/29 07:53:51;;;;;;;;;25.33;23.33;;;;;7.69;90.01;102803.56;4999225;28;45370;-77
2022/01/29 07:56:17;;;;;;;;;26.67;25.67;;;;;7.82;90.29;102808.88;4999187;28;45514;-77
2022/01/29 07:58:42;;;;;;;;;33.00;27.00;;;;;7.83;90.39;102816.72;4999409;28;45459;-78
2022/01/29 08:01:07;;;;;;;;;31.67;27.33;;;;;7.84;90.18;102809.59;4999916;28;45403;-77
2022/01/29 08:03:33;;;;;;;;;30.00;28.67;;;;;7.88;89.68;102816.41;5000465;28;46262;-77
2022/01/29 08:05:58;;;;;;;;;27.50;22.25;;;;;7.91;90.10;102807.41;5032836;28;46082;-77
2022/01/29 08:08:23;;;;;;;;;31.67;28.00;;;;;7.92;89.98;102811.75;5002003;28;45291;-77
2022/01/29 08:10:49;;;;;;;;;34.00;31.25;;;;;7.94;89.88;102804.53;5000812;28;45348;-77
2022/01/29 08:13:14;;;;;;;;;28.33;25.67;;;;;7.90;90.36;102795.97;5000381;28;45984;-77
2022/01/29 08:15:39;;;;;;;;;33.00;28.67;;;;;8.03;90.08;102809.22;5001356;28;45262;-77
2022/01/29 08:18:05;;;;;;;;;27.67;27.00;;;;;8.04;89.48;102804.75;5009197;28;45461;-78
2022/01/29 08:20:31;;;;;;;;;32.00;28.67;;;;;8.04;90.05;102797.66;5019830;28;47135;-78
2022/01/29 08:22:57;;;;;;;;;29.33;27.67;;;;;8.05;89.67;102803.81;5019757;28;47316;-77
2022/01/29 08:25:22;;;;;;;;;31.67;28.67;;;;;8.08;89.72;102795.63;5020610;28;45347;-76
2022/01/29 08:27:48;;;;;;;;;27.33;25.33;;;;;8.17;90.11;102795.00;5021365;28;45307;-78
2022/01/29 08:30:13;;;;;;;;;21.67;20.67;;;;;8.19;90.17;102795.75;5020455;28;45142;-79
2022/01/29 08:32:42;;;;;;;;;27.67;24.33;;;;;8.34;89.65;102801.75;4997619;28;45646;-78
2022/01/29 08:35:13;;;;;;;;;28.67;27.33;;;;;8.36;90.28;102795.50;4994305;28;45455;-78
2022/01/29 08:37:39;;;;;;;;;27.67;24.33;;;;;8.34;89.67;102793.81;4995629;28;45184;-79
2022/01/29 08:40:06;;;;;;;;;28.33;26.00;;;;;8.40;89.82;102797.81;4993083;28;45261;-79
2022/01/29 08:42:31;;;;;;;;;23.67;22.00;;;;;8.45;89.62;102794.84;4993375;28;45221;-78
2022/01/29 08:44:57;;;;;;;;;24.67;22.33;;;;;8.38;89.65;102789.13;4999083;28;45385;-78
2022/01/29 08:47:22;;;;;;;;;26.67;23.67;;;;;8.51;89.82;102801.50;5001875;28;45419;-76
2022/01/29 08:49:48;;;;;;;;;24.33;23.00;;;;;8.52;89.58;102797.91;5003693;28;45349;-78
2022/01/29 08:52:14;;;;;;;;;30.33;25.00;;;;;8.54;89.30;102791.59;5002479;28;45352;-77
2022/01/29 08:54:39;;;;;;;;;26.67;25.00;;;;;8.56;89.12;102791.47;5004735;28;45275;-77
2022/01/29 08:57:05;;;;;;;;;26.33;24.67;;;;;8.59;89.47;102797.38;5005000;28;45640;-79
2022/01/29 08:59:30;;;;;;;;;22.00;22.00;;;;;8.59;89.27;102792.09;5013776;28;47320;-78
2022/01/29 09:01:56;;;;;;;;;23.00;22.33;;;;;8.69;89.36;102804.69;5001400;28;45657;-78
2022/01/29 09:04:21;;;;;;;;;28.67;28.67;;;;;8.64;89.52;102797.06;5002103;28;45242;-79
2022/01/29 09:06:46;;;;;;;;;26.33;24.00;;;;;8.63;89.07;102795.38;5006595;28;45491;-77
2022/01/29 09:09:12;;;;;;;;;19.00;19.00;;;;;8.58;89.40;102784.25;5001435;28;45263;-78
2022/01/29 09:11:37;;;;;;;;;24.00;21.33;;;;;8.70;89.43;102801.91;4999804;28;45225;-78
2022/01/29 09:14:02;;;;;;;;;22.00;20.33;;;;;8.73;89.25;102802.63;4997203;28;45151;-76
2022/01/29 09:16:28;;;;;;;;;18.33;18.33;;;;;8.74;89.30;102799.03;5000945;28;45217;-76
2022/01/29 09:18:53;;;;;;;;;23.33;22.67;;;;;8.72;89.17;102783.25;4998074;28;45430;-78
2022/01/29 09:21:18;;;;;;;;;21.00;20.00;;;;;8.81;89.38;102795.84;5000332;28;46018;-77
2022/01/29 09:23:44;;;;;;;;;22.33;21.33;;;;;8.84;89.10;102797.41;5015716;28;45270;-77
2022/01/29 09:26:09;;;;;;;;;23.67;23.67;;;;;8.87;88.94;102799.00;5000767;28;45153;-76
2022/01/29 09:28:35;;;;;;;;;20.33;19.33;;;;;8.92;89.15;102794.22;5001801;28;45185;-76
2022/01/29 09:31:00;;;;;;;;;21.33;21.33;;;;;8.93;89.10;102790.59;5000051;28;45265;-77
2022/01/29 09:33:25;;;;;;;;;21.67;21.67;;;;;8.95;88.98;102792.16;5000335;28;45246;-76
2022/01/29 09:35:51;;;;;;;;;23.67;23.33;;;;;8.86;88.99;102786.69;5000457;28;45261;-77
2022/01/29 09:38:16;;;;;;;;;24.00;20.67;;;;;8.91;89.10;102781.88;5000128;28;45150;-76
2022/01/29 09:40:43;;;;;;;;;26.33;21.67;;;;;9.01;88.89;102779.41;4999740;28;45314;-77
2022/01/29 09:43:10;;;;;;;;;21.33;17.67;;;;;9.08;88.83;102783.31;4999802;28;45312;-76
2022/01/29 09:45:36;;;;;;;;;18.00;17.67;;;;;9.12;88.85;102779.47;5000184;28;45341;-77
2022/01/29 09:48:02;;;;;;;;;16.67;14.33;;;;;9.16;88.86;102783.56;4993349;28;45433;-75
2022/01/29 09:50:30;;;;;;;;;18.33;17.00;;;;;9.22;88.87;102779.63;4984513;28;45320;-76
2022/01/29 09:52:55;;;;;;;;;15.00;14.67;;;;;9.18;88.68;102764.88;4983939;28;45316;-76
2022/01/29 09:55:21;;;;;;;;;15.67;14.67;;;;;9.36;88.85;102780.41;4999868;28;45160;-76
2022/01/29 09:57:47;;;;;;;;;27.67;25.33;;;;;9.26;88.67;102759.00;5015162;28;47192;-75
2022/01/29 10:00:13;;;;;;;;;15.67;15.00;;;;;9.41;88.36;102767.63;4999877;28;46280;-79
2022/01/29 10:02:38;;;;;;;;;18.67;18.67;;;;;9.35;88.24;102768.94;5014985;28;45313;-77
2022/01/29 10:05:04;;;;;;;;;13.33;13.33;;;;;9.36;88.39;102767.13;4993406;28;45334;-79
2022/01/29 10:07:31;;;;;;;;;19.00;17.00;;;;;9.42;88.12;102777.25;4980210;28;45432;-78
2022/01/29 10:09:59;;;;;;;;;18.33;15.33;;;;;9.38;88.08;102776.66;4979605;28;45658;-81
2022/01/29 10:12:32;;;;;;;;;19.33;18.00;;;;;9.52;88.17;102788.03;4995423;28;45301;-78
2022/01/29 10:15:04;;;;;;;;;17.67;16.67;;;;;9.45;87.89;102782.34;4978982;28;45367;-77
2022/01/29 10:17:49;;;;;;;;;14.67;13.33;;;;;9.53;88.11;102790.59;4986701;28;45271;-77
2022/01/29 10:20:17;;;;;;;;;16.67;15.00;;;;;9.57;88.05;102796.47;5019687;28;45479;-77
2022/01/29 10:22:49;;;;;;;;;17.00;16.33;;;;;9.56;87.89;102793.00;5017860;28;45241;-79
2022/01/29 10:25:27;;;;;;;;;13.67;13.00;;;;;9.57;87.89;102791.19;5018382;28;45384;-78
2022/01/29 10:28:14;;;;;;;;;18.67;16.00;;;;;9.56;87.80;102785.03;5019205;28;45513;-76
2022/01/29 10:30:49;;;;;;;;;14.33;12.67;;;;;9.58;87.92;102791.06;5019034;28;45296;-77
2022/01/29 10:33:31;;;;;;;;;13.67;13.67;;;;;9.52;87.89;102775.59;5015120;28;45428;-79
2022/01/29 10:36:03;;;;;;;;;12.33;12.00;;;;;9.63;88.02;102776.59;5003534;28;45392;-76
2022/01/29 10:38:41;;;;;;;;;13.33;12.00;;;;;9.66;88.01;102784.31;4998305;28;46119;-76
2022/01/29 10:41:24;;;;;;;;;12.00;12.00;;;;;9.65;87.74;102791.44;5000186;28;45313;-76
2022/01/29 10:44:19;;;;;;;;;14.33;13.67;;;;;9.68;87.82;102787.72;5005654;28;45521;-77
2022/01/29 10:46:48;;;;;;;;;16.00;15.00;;;;;9.71;88.16;102777.72;5000719;28;45307;-79
2022/01/29 10:49:17;;;;;;;;;17.00;17.00;;;;;9.73;87.82;102778.41;5002744;28;45179;-80
2022/01/29 10:51:56;;;;;;;;;15.67;14.67;;;;;9.70;88.10;102770.69;5004574;28;45397;-78
2022/01/29 10:54:22;;;;;;;;;13.33;12.33;;;;;9.76;87.79;102763.22;5006038;28;45239;-79
2022/01/29 10:56:51;;;;;;;;;11.00;11.00;;;;;9.76;88.13;102764.06;5004346;28;45213;-79
2022/01/29 10:59:16;;;;;;;;;10.67;10.67;;;;;9.81;87.84;102763.69;5019812;28;46288;-79
2022/01/29 11:01:49;;;;;;;;;2.67;2.67;;;;;9.79;87.22;102765.66;5018853;28;47175;-78
2022/01/29 11:04:14;;;;;;;;;11.00;11.00;;;;;9.94;87.82;102776.88;5003572;28;45169;-84
2022/01/29 11:06:44;;;;;;;;;11.33;11.33;;;;;9.84;87.49;102761.66;5003016;28;45230;-82
2022/01/29 11:09:11;;;;;;;;;12.67;10.00;;;;;9.97;87.62;102776.66;5017998;28;46509;-81
2022/01/29 11:11:38;;;;;;;;;9.00;9.00;;;;;9.87;87.87;102765.88;5004533;28;45269;-80
2022/01/29 11:14:05;;;;;;;;;9.67;8.33;;;;;9.95;88.05;102774.13;5020155;28;46042;-80
2022/01/29 11:16:31;;;;;;;;;10.00;10.00;;;;;10.01;87.49;102774.59;5005555;28;45232;-83
2022/01/29 11:18:58;;;;;;;;;8.33;7.33;;;;;10.08;87.51;102794.38;5020202;28;45520;-81
2022/01/29 11:21:24;;;;;;;;;11.33;8.67;;;;;10.07;87.37;102776.75;5024298;28;45322;-83
2022/01/29 11:23:50;;;;;;;;;12.33;10.00;;;;;10.06;87.73;102773.25;5025661;28;45273;-79
2022/01/29 11:26:16;;;;;;;;;8.00;8.00;;;;;10.06;87.24;102775.91;5020813;28;45344;-81
2022/01/29 11:28:41;;;;;;;;;10.67;10.33;;;;;10.08;87.55;102775.78;5024675;28;45501;-79